Time;durP1;ratioP1;P1;durP2;ratioP2;P2;SDS_P1;SDS_P2;PMS_P1;PMS_P2;Temp;Humidity;BMP_temperature;BMP_pressure;BME280_temperature;BME280_humidity;BME280_pressure;Samples;Min_cycle;Max_cycle;Signal;HPM_P1;HPM_P2
2023/06/28 00:00:25;;;;;;;1.83;1.13;;;;;;;;;;5021061;28;20284;-52
2023/06/28 00:02:51;;;;;;;1.30;0.90;;;;;;;;;;5016233;28;20605;-52
2023/06/28 00:05:17;;;;;;;3.92;1.00;;;;;;;;;;5015108;28;20192;-52
2023/06/28 00:07:43;;;;;;;1.00;0.90;;;;;;;;;;5021241;28;20191;-52
2023/06/28 00:10:09;;;;;;;1.40;0.77;;;;;;;;;;5015721;28;20189;-52
2023/06/28 00:12:35;;;;;;;0.90;0.77;;;;;;;;;;5015550;28;20188;-52
2023/06/28 00:15:01;;;;;;;0.88;0.82;;;;;;;;;;5015884;28;20211;-52
2023/06/28 00:17:27;;;;;;;1.17;1.08;;;;;;;;;;5020905;28;20211;-52
2023/06/28 00:19:54;;;;;;;0.68;0.68;;;;;;;;;;5017770;28;20187;-52
2023/06/28 00:22:23;;;;;;;1.75;0.80;;;;;;;;;;5015111;28;20279;-52
2023/06/28 00:24:49;;;;;;;1.00;0.90;;;;;;;;;;5015489;28;20185;-52
2023/06/28 00:27:15;;;;;;;1.45;1.00;;;;;;;;;;5014985;28;20191;-52
2023/06/28 00:29:41;;;;;;;0.77;0.73;;;;;;;;;;5020437;28;20467;-52
2023/06/28 00:32:07;;;;;;;3.15;1.00;;;;;;;;;;5015657;28;20184;-52
2023/06/28 00:34:33;;;;;;;0.95;0.80;;;;;;;;;;5017831;28;20239;-52
2023/06/28 00:36:59;;;;;;;0.95;0.80;;;;;;;;;;5014521;28;20239;-52
2023/06/28 00:39:25;;;;;;;1.02;0.93;;;;;;;;;;5019100;28;20180;-52
2023/06/28 00:41:51;;;;;;;1.08;0.98;;;;;;;;;;5015309;28;20183;-52
2023/06/28 00:44:17;;;;;;;0.90;0.80;;;;;;;;;;5015007;28;20526;-52
2023/06/28 00:46:42;;;;;;;1.10;0.98;;;;;;;;;;5014463;28;20188;-53
2023/06/28 00:49:09;;;;;;;0.85;0.85;;;;;;;;;;5018463;28;20537;-52
2023/06/28 00:51:35;;;;;;;1.73;0.90;;;;;;;;;;5014636;28;20207;-52
2023/06/28 00:54:01;;;;;;;1.23;1.00;;;;;;;;;;5014790;28;20615;-52
2023/06/28 00:56:28;;;;;;;0.73;0.73;;;;;;;;;;5013771;28;20219;-52
2023/06/28 00:58:54;;;;;;;1.10;0.98;;;;;;;;;;5018549;28;20677;-52
2023/06/28 01:01:20;;;;;;;0.70;0.70;;;;;;;;;;5015110;28;20188;-53
2023/06/28 01:03:50;;;;;;;0.80;0.80;;;;;;;;;;5013390;28;20467;-53
2023/06/28 01:06:16;;;;;;;1.60;0.80;;;;;;;;;;5012796;28;20540;-53
2023/06/28 01:08:43;;;;;;;1.55;0.82;;;;;;;;;;5014738;28;20203;-53
2023/06/28 01:11:10;;;;;;;1.52;0.90;;;;;;;;;;5015048;28;20188;-53
2023/06/28 01:13:36;;;;;;;2.03;0.70;;;;;;;;;;5012799;28;20191;-52
2023/06/28 01:16:02;;;;;;;0.82;0.82;;;;;;;;;;5014200;28;20199;-53
2023/06/28 01:18:29;;;;;;;0.70;0.70;;;;;;;;;;5014336;28;20259;-52
2023/06/28 01:20:57;;;;;;;1.05;0.80;;;;;;;;;;5021420;28;20456;-52
2023/06/28 01:23:26;;;;;;;1.10;0.80;;;;;;;;;;5016349;28;20195;-52
2023/06/28 01:25:53;;;;;;;0.80;0.60;;;;;;;;;;5014176;28;20187;-52
2023/06/28 01:28:22;;;;;;;1.40;0.68;;;;;;;;;;5014497;28;20254;-52
2023/06/28 01:30:49;;;;;;;1.10;0.80;;;;;;;;;;5015653;28;20191;-52
2023/06/28 01:33:18;;;;;;;0.73;0.73;;;;;;;;;;5015849;28;20192;-52
2023/06/28 01:35:43;;;;;;;1.35;0.60;;;;;;;;;;5013795;28;20195;-52
2023/06/28 01:38:10;;;;;;;0.77;0.77;;;;;;;;;;5014430;28;20204;-52
2023/06/28 01:40:36;;;;;;;1.30;0.90;;;;;;;;;;5010275;28;20200;-52
2023/06/28 01:43:05;;;;;;;0.90;0.90;;;;;;;;;;4996902;28;20191;-52
2023/06/28 01:45:31;;;;;;;0.70;0.70;;;;;;;;;;5014050;28;20299;-52
2023/06/28 01:47:57;;;;;;;0.85;0.70;;;;;;;;;;5013261;28;20272;-52
2023/06/28 01:50:23;;;;;;;1.60;0.82;;;;;;;;;;5020477;28;20188;-52
2023/06/28 01:52:49;;;;;;;1.58;0.80;;;;;;;;;;5019447;28;20182;-52
2023/06/28 01:55:15;;;;;;;1.75;0.90;;;;;;;;;;5018861;28;20188;-52
2023/06/28 01:57:41;;;;;;;1.50;0.90;;;;;;;;;;5013208;28;20204;-52
2023/06/28 02:00:08;;;;;;;0.60;0.60;;;;;;;;;;5016098;28;20499;-52
2023/06/28 02:02:35;;;;;;;0.90;0.70;;;;;;;;;;5013912;28;20180;-52
2023/06/28 02:05:01;;;;;;;1.73;0.88;;;;;;;;;;5013597;28;20563;-53
2023/06/28 02:07:27;;;;;;;0.70;0.70;;;;;;;;;;5014842;28;20255;-52
2023/06/28 02:09:53;;;;;;;0.80;0.80;;;;;;;;;;5017316;28;20199;-52
2023/06/28 02:12:18;;;;;;;1.75;0.80;;;;;;;;;;5014026;28;20591;-52
2023/06/28 02:14:44;;;;;;;1.10;1.00;;;;;;;;;;5013713;28;20211;-52
2023/06/28 02:17:13;;;;;;;1.30;0.70;;;;;;;;;;5013271;28;20552;-52
2023/06/28 02:19:40;;;;;;;1.88;0.80;;;;;;;;;;5016974;28;20172;-53
2023/06/28 02:22:06;;;;;;;1.23;0.70;;;;;;;;;;5013566;28;20197;-52
2023/06/28 02:24:32;;;;;;;4.45;0.90;;;;;;;;;;5013514;28;20192;-52
2023/06/28 02:26:57;;;;;;;1.77;0.70;;;;;;;;;;5013295;28;20264;-52
2023/06/28 02:29:23;;;;;;;0.70;0.70;;;;;;;;;;5015267;28;20191;-52
2023/06/28 02:31:49;;;;;;;3.00;0.55;;;;;;;;;;5013852;28;20188;-52
2023/06/28 02:34:15;;;;;;;1.10;0.77;;;;;;;;;;5013853;28;20212;-52
2023/06/28 02:36:41;;;;;;;2.22;0.80;;;;;;;;;;5012802;28;20212;-52
2023/06/28 02:39:07;;;;;;;0.63;0.63;;;;;;;;;;5015763;28;20191;-52
2023/06/28 02:41:33;;;;;;;0.57;0.57;;;;;;;;;;5017556;28;20189;-53
2023/06/28 02:43:59;;;;;;;2.47;0.77;;;;;;;;;;5011446;28;20283;-52
2023/06/28 02:46:25;;;;;;;0.68;0.57;;;;;;;;;;5008660;28;20184;-53
2023/06/28 02:48:50;;;;;;;1.17;0.95;;;;;;;;;;5013906;28;20551;-52
2023/06/28 02:51:16;;;;;;;0.70;0.70;;;;;;;;;;5019139;28;20275;-52
2023/06/28 02:53:42;;;;;;;2.75;0.70;;;;;;;;;;5013132;28;20192;-52
2023/06/28 02:56:12;;;;;;;0.80;0.70;;;;;;;;;;5019299;28;20176;-53
2023/06/28 02:58:38;;;;;;;0.52;0.52;;;;;;;;;;5022038;28;20267;-52
2023/06/28 03:01:04;;;;;;;0.60;0.60;;;;;;;;;;5017136;28;20586;-53
2023/06/28 03:03:33;;;;;;;0.60;0.60;;;;;;;;;;5019584;28;20188;-53
2023/06/28 03:05:59;;;;;;;1.83;0.60;;;;;;;;;;5015899;28;20180;-53
2023/06/28 03:08:25;;;;;;;2.05;0.68;;;;;;;;;;5018319;28;20185;-53
2023/06/28 03:10:51;;;;;;;1.05;0.80;;;;;;;;;;5016737;28;20279;-53
2023/06/28 03:13:17;;;;;;;0.70;0.70;;;;;;;;;;5023538;28;20177;-53
2023/06/28 03:15:43;;;;;;;1.02;0.88;;;;;;;;;;5016953;28;20619;-53
2023/06/28 03:18:09;;;;;;;0.93;0.75;;;;;;;;;;5015731;28;20227;-53
2023/06/28 03:20:34;;;;;;;2.03;0.98;;;;;;;;;;5016917;28;20173;-53
2023/06/28 03:23:02;;;;;;;1.58;0.70;;;;;;;;;;5019034;28;20618;-53
2023/06/28 03:25:28;;;;;;;1.30;0.80;;;;;;;;;;5021678;28;20184;-53
2023/06/28 03:27:54;;;;;;;0.73;0.70;;;;;;;;;;5016327;28;20193;-56
2023/06/28 03:30:20;;;;;;;1.23;0.73;;;;;;;;;;5016852;28;20184;-58
2023/06/28 03:32:46;;;;;;;10.93;1.10;;;;;;;;;;5017529;28;20207;-58
2023/06/28 03:35:12;;;;;;;5.90;2.08;;;;;;;;;;5021662;28;20180;-58
2023/06/28 03:37:38;;;;;;;6.60;1.83;;;;;;;;;;5019933;28;20246;-58
2023/06/28 03:40:04;;;;;;;3.97;1.20;;;;;;;;;;5016558;28;20177;-58
2023/06/28 03:42:30;;;;;;;6.38;1.27;;;;;;;;;;5016853;28;20177;-59
2023/06/28 03:44:56;;;;;;;15.68;2.35;;;;;;;;;;5016896;28;20181;-59
2023/06/28 03:47:22;;;;;;;8.80;1.45;;;;;;;;;;5015660;28;20236;-59
2023/06/28 03:49:48;;;;;;;4.57;1.20;;;;;;;;;;5016560;28;20234;-59
2023/06/28 03:52:14;;;;;;;4.10;1.17;;;;;;;;;;5015059;28;20582;-59
2023/06/28 03:54:40;;;;;;;8.13;1.63;;;;;;;;;;5016337;28;20176;-58
2023/06/28 03:57:06;;;;;;;4.50;1.70;;;;;;;;;;5015480;28;20231;-58
2023/06/28 03:59:32;;;;;;;6.72;1.48;;;;;;;;;;5016280;28;20185;-59
2023/06/28 04:01:58;;;;;;;4.55;1.40;;;;;;;;;;5015719;28;20527;-58
2023/06/28 04:04:24;;;;;;;3.45;1.35;;;;;;;;;;5015678;28;20212;-58
2023/06/28 04:06:50;;;;;;;8.38;1.27;;;;;;;;;;5018523;28;20192;-58
2023/06/28 04:09:16;;;;;;;3.63;1.42;;;;;;;;;;5015688;28;20251;-58
2023/06/28 04:11:42;;;;;;;4.07;1.20;;;;;;;;;;5015063;28;20193;-59
2023/06/28 04:14:08;;;;;;;3.40;1.23;;;;;;;;;;5015924;28;20209;-58
2023/06/28 04:16:34;;;;;;;3.58;1.10;;;;;;;;;;5009243;28;20232;-58
2023/06/28 04:19:00;;;;;;;2.03;1.00;;;;;;;;;;5022144;28;20175;-58
2023/06/28 04:21:26;;;;;;;1.50;0.90;;;;;;;;;;5015806;28;20303;-59
2023/06/28 04:23:52;;;;;;;4.68;1.30;;;;;;;;;;5016691;28;20599;-59
2023/06/28 04:26:19;;;;;;;3.83;1.20;;;;;;;;;;5015073;28;20173;-59
2023/06/28 04:28:45;;;;;;;1.95;1.05;;;;;;;;;;5015662;28;20180;-59
2023/06/28 04:31:12;;;;;;;3.42;1.23;;;;;;;;;;5015835;28;20191;-59
2023/06/28 04:33:38;;;;;;;5.80;0.98;;;;;;;;;;5021066;28;20183;-59
2023/06/28 04:36:04;;;;;;;1.20;1.00;;;;;;;;;;5015950;28;20203;-59
2023/06/28 04:38:32;;;;;;;2.83;1.05;;;;;;;;;;5015283;28;20280;-59
2023/06/28 04:40:59;;;;;;;3.05;1.00;;;;;;;;;;5013597;28;20669;-59
2023/06/28 04:43:25;;;;;;;2.97;1.10;;;;;;;;;;5019229;28;20634;-60
2023/06/28 04:45:51;;;;;;;3.03;1.10;;;;;;;;;;5014937;28;20180;-59
2023/06/28 04:48:17;;;;;;;1.35;0.95;;;;;;;;;;5015345;28;20189;-59
2023/06/28 04:50:47;;;;;;;2.03;0.95;;;;;;;;;;5015475;28;20188;-59
2023/06/28 04:53:13;;;;;;;1.90;1.02;;;;;;;;;;5017910;28;20275;-60
2023/06/28 04:55:43;;;;;;;1.35;0.90;;;;;;;;;;5019754;28;20180;-59
2023/06/28 04:58:09;;;;;;;1.73;0.98;;;;;;;;;;5014344;28;20216;-59
2023/06/28 05:00:35;;;;;;;1.52;0.98;;;;;;;;;;5015361;28;20287;-59
2023/06/28 05:03:01;;;;;;;1.92;0.98;;;;;;;;;;5015024;28;20211;-59
2023/06/28 05:05:27;;;;;;;4.07;1.00;;;;;;;;;;5017906;28;20193;-59
2023/06/28 05:07:53;;;;;;;2.85;1.10;;;;;;;;;;5014583;28;20184;-59
2023/06/28 05:10:23;;;;;;;0.88;0.80;;;;;;;;;;5014461;28;20211;-59
2023/06/28 05:12:51;;;;;;;1.42;0.90;;;;;;;;;;5015005;28;20192;-59
2023/06/28 05:15:17;;;;;;;2.25;1.00;;;;;;;;;;5015151;28;20175;-59
2023/06/28 05:17:43;;;;;;;1.73;1.10;;;;;;;;;;5017447;28;20294;-60
2023/06/28 05:20:09;;;;;;;2.22;1.27;;;;;;;;;;5014164;28;20173;-59
2023/06/28 05:22:35;;;;;;;1.17;1.08;;;;;;;;;;5013519;28;20196;-59
2023/06/28 05:25:01;;;;;;;1.95;1.08;;;;;;;;;;5012985;28;20250;-59
2023/06/28 05:27:27;;;;;;;1.70;1.23;;;;;;;;;;5014858;28;20188;-59
2023/06/28 05:29:53;;;;;;;2.75;1.17;;;;;;;;;;5017838;28;20193;-59
2023/06/28 05:32:19;;;;;;;1.33;1.23;;;;;;;;;;5014621;28;20176;-59
2023/06/28 05:34:45;;;;;;;1.63;1.23;;;;;;;;;;5014665;28;20180;-60
2023/06/28 05:37:11;;;;;;;2.75;1.17;;;;;;;;;;5013771;28;20243;-59
2023/06/28 05:39:36;;;;;;;3.25;1.25;;;;;;;;;;5016081;28;20271;-60
2023/06/28 05:42:02;;;;;;;2.13;0.90;;;;;;;;;;5016647;28;20448;-60
2023/06/28 05:44:28;;;;;;;1.88;1.20;;;;;;;;;;5014714;28;20184;-60
2023/06/28 05:46:54;;;;;;;2.53;1.50;;;;;;;;;;5013931;28;20199;-59
2023/06/28 05:49:20;;;;;;;1.85;1.48;;;;;;;;;;5014423;28;20188;-60
2023/06/28 05:51:46;;;;;;;1.50;1.00;;;;;;;;;;5014583;28;20279;-59
2023/06/28 05:54:12;;;;;;;1.73;1.20;;;;;;;;;;5014088;28;20247;-59
2023/06/28 05:56:38;;;;;;;3.72;1.20;;;;;;;;;;5013457;28;20583;-60
2023/06/28 05:59:04;;;;;;;2.47;1.00;;;;;;;;;;5014367;28;20223;-60
2023/06/28 06:01:30;;;;;;;1.27;1.00;;;;;;;;;;5014566;28;20184;-60
2023/06/28 06:03:56;;;;;;;1.42;1.20;;;;;;;;;;5016713;28;20180;-60
2023/06/28 06:06:22;;;;;;;2.45;1.10;;;;;;;;;;5012012;28;20188;-61
2023/06/28 06:08:47;;;;;;;2.40;1.02;;;;;;;;;;5013027;28;20204;-61
2023/06/28 06:11:14;;;;;;;3.85;1.42;;;;;;;;;;5013740;28;20348;-60
2023/06/28 06:13:39;;;;;;;3.38;1.27;;;;;;;;;;4992323;28;20181;-61
2023/06/28 06:16:05;;;;;;;2.03;1.50;;;;;;;;;;5013430;28;20199;-60
2023/06/28 06:18:31;;;;;;;2.70;1.20;;;;;;;;;;5014090;28;20539;-60
2023/06/28 06:20:57;;;;;;;3.58;1.20;;;;;;;;;;5014045;28;20197;-61
2023/06/28 06:23:23;;;;;;;3.42;1.30;;;;;;;;;;5011977;28;20225;-61
2023/06/28 06:25:49;;;;;;;3.08;1.00;;;;;;;;;;5013506;28;20180;-60
2023/06/28 06:28:15;;;;;;;3.42;1.30;;;;;;;;;;5014069;28;20191;-59
2023/06/28 06:30:41;;;;;;;1.85;1.00;;;;;;;;;;4996934;28;20809;-60
2023/06/28 06:33:07;;;;;;;2.38;1.42;;;;;;;;;;5013800;28;20223;-60
2023/06/28 06:35:33;;;;;;;4.35;0.98;;;;;;;;;;5017451;28;20204;-59
2023/06/28 06:37:59;;;;;;;3.92;1.10;;;;;;;;;;5017396;28;20212;-60
2023/06/28 06:40:25;;;;;;;3.10;1.00;;;;;;;;;;5017879;28;20222;-61
2023/06/28 06:42:50;;;;;;;3.00;1.25;;;;;;;;;;5017514;28;20180;-60
2023/06/28 06:45:19;;;;;;;2.08;1.02;;;;;;;;;;5017036;28;20431;-60
2023/06/28 06:47:45;;;;;;;3.53;0.90;;;;;;;;;;5016936;28;20192;-60
2023/06/28 06:50:11;;;;;;;3.22;1.25;;;;;;;;;;5017516;28;20204;-60
2023/06/28 06:52:38;;;;;;;4.43;1.35;;;;;;;;;;5017550;28;20238;-61
2023/06/28 06:55:04;;;;;;;3.85;1.00;;;;;;;;;;5017558;28;20444;-60
2023/06/28 06:57:30;;;;;;;2.88;1.42;;;;;;;;;;5017146;28;20208;-60
2023/06/28 06:59:56;;;;;;;1.58;1.23;;;;;;;;;;5016682;28;20188;-60
2023/06/28 07:02:22;;;;;;;1.65;1.10;;;;;;;;;;5017523;28;20180;-61
2023/06/28 07:04:49;;;;;;;1.23;0.98;;;;;;;;;;5017746;28;20206;-61
2023/06/28 07:07:15;;;;;;;2.53;1.05;;;;;;;;;;5022876;28;20180;-60
2023/06/28 07:09:41;;;;;;;1.98;0.85;;;;;;;;;;5018573;28;20200;-61
2023/06/28 07:12:07;;;;;;;2.88;1.25;;;;;;;;;;5017080;28;20571;-61
2023/06/28 07:14:42;;;;;;;1.60;1.00;;;;;;;;;;5017079;28;20284;-61
2023/06/28 07:17:08;;;;;;;4.18;1.15;;;;;;;;;;5016840;28;20211;-61
2023/06/28 07:19:34;;;;;;;3.95;1.20;;;;;;;;;;5017384;28;20765;-60
2023/06/28 07:22:00;;;;;;;1.73;0.93;;;;;;;;;;5016805;28;20184;-60
2023/06/28 07:24:25;;;;;;;2.50;1.02;;;;;;;;;;5017066;28;20172;-61
2023/06/28 07:26:51;;;;;;;2.15;1.42;;;;;;;;;;5016919;28;20188;-61
2023/06/28 07:29:17;;;;;;;1.20;0.75;;;;;;;;;;5017003;28;20184;-60
2023/06/28 07:31:43;;;;;;;1.20;0.93;;;;;;;;;;5016551;28;20310;-60
2023/06/28 07:34:09;;;;;;;1.30;0.80;;;;;;;;;;5016945;28;20188;-60
2023/06/28 07:36:35;;;;;;;4.43;1.00;;;;;;;;;;5016296;28;20207;-60
2023/06/28 07:39:01;;;;;;;2.88;0.93;;;;;;;;;;5016624;28;20555;-60
2023/06/28 07:41:27;;;;;;;1.08;0.80;;;;;;;;;;5016817;28;20245;-60
2023/06/28 07:43:53;;;;;;;2.15;1.10;;;;;;;;;;5015444;28;20506;-60
2023/06/28 07:46:19;;;;;;;2.63;1.08;;;;;;;;;;5014763;28;20278;-61
2023/06/28 07:48:48;;;;;;;1.15;1.00;;;;;;;;;;5016376;28;20215;-61
2023/06/28 07:51:14;;;;;;;6.40;1.20;;;;;;;;;;5015971;28;20261;-61
2023/06/28 07:53:42;;;;;;;2.67;1.10;;;;;;;;;;5016330;28;20215;-61
2023/06/28 07:56:08;;;;;;;1.10;0.85;;;;;;;;;;5015520;28;20532;-61
2023/06/28 07:58:36;;;;;;;1.85;1.00;;;;;;;;;;5016283;28;20188;-61
2023/06/28 08:01:02;;;;;;;2.70;1.10;;;;;;;;;;5016424;28;20574;-61
2023/06/28 08:03:28;;;;;;;2.72;1.10;;;;;;;;;;5016190;28;20184;-60
2023/06/28 08:05:54;;;;;;;0.93;0.90;;;;;;;;;;5010204;28;20223;-60
2023/06/28 08:08:20;;;;;;;1.48;1.05;;;;;;;;;;5015352;28;20575;-60
2023/06/28 08:10:46;;;;;;;1.35;1.00;;;;;;;;;;5015835;28;20195;-60
2023/06/28 08:13:12;;;;;;;2.33;1.10;;;;;;;;;;5015431;28;20212;-60
2023/06/28 08:15:38;;;;;;;2.63;1.10;;;;;;;;;;5016226;28;20268;-60
2023/06/28 08:18:07;;;;;;;3.92;1.10;;;;;;;;;;5015475;28;20204;-61
2023/06/28 08:20:33;;;;;;;2.30;1.08;;;;;;;;;;5015315;28;20184;-60
2023/06/28 08:22:59;;;;;;;2.55;0.90;;;;;;;;;;5015322;28;20188;-60
2023/06/28 08:25:25;;;;;;;3.97;1.33;;;;;;;;;;5015319;28;20192;-60
2023/06/28 08:27:51;;;;;;;1.30;0.93;;;;;;;;;;5015401;28;20265;-60
2023/06/28 08:30:17;;;;;;;1.10;1.00;;;;;;;;;;5015956;28;20188;-60
2023/06/28 08:32:44;;;;;;;1.10;1.00;;;;;;;;;;5015614;28;20180;-60
2023/06/28 08:35:10;;;;;;;2.28;1.00;;;;;;;;;;5015768;28;20291;-60
2023/06/28 08:37:36;;;;;;;3.97;1.45;;;;;;;;;;5014973;28;20197;-60
2023/06/28 08:40:04;;;;;;;1.30;0.77;;;;;;;;;;5015145;28;20187;-61
2023/06/28 08:42:30;;;;;;;2.17;1.13;;;;;;;;;;5015227;28;20173;-61
2023/06/28 08:44:57;;;;;;;2.40;0.93;;;;;;;;;;5015555;28;20207;-60
2023/06/28 08:47:24;;;;;;;4.85;1.13;;;;;;;;;;5015098;28;20181;-60
2023/06/28 08:49:50;;;;;;;5.28;1.13;;;;;;;;;;5015584;28;20283;-60
2023/06/28 08:52:16;;;;;;;2.47;1.05;;;;;;;;;;5013861;28;20283;-61
2023/06/28 08:54:42;;;;;;;1.23;1.00;;;;;;;;;;5016129;28;20295;-61
2023/06/28 08:57:08;;;;;;;2.05;1.05;;;;;;;;;;5020779;28;20216;-60
2023/06/28 08:59:34;;;;;;;1.50;1.00;;;;;;;;;;5022761;28;20180;-61
2023/06/28 09:02:01;;;;;;;3.35;1.05;;;;;;;;;;5014951;28;20180;-61
2023/06/28 09:04:27;;;;;;;2.25;1.15;;;;;;;;;;5015456;28;20180;-62
2023/06/28 09:06:53;;;;;;;2.35;1.30;;;;;;;;;;5014268;28;20180;-62
2023/06/28 09:09:19;;;;;;;1.65;1.02;;;;;;;;;;5021088;28;20669;-61
2023/06/28 09:11:46;;;;;;;1.95;0.90;;;;;;;;;;5015023;28;20193;-61
2023/06/28 09:14:12;;;;;;;3.38;1.10;;;;;;;;;;5015061;28;20195;-61
2023/06/28 09:16:39;;;;;;;1.52;0.93;;;;;;;;;;5014508;28;20232;-61
2023/06/28 09:19:05;;;;;;;3.92;1.23;;;;;;;;;;5015202;28;20177;-61
2023/06/28 09:21:31;;;;;;;1.60;0.90;;;;;;;;;;5015410;28;20211;-61
2023/06/28 09:23:57;;;;;;;7.18;1.23;;;;;;;;;;5014637;28;20184;-61
2023/06/28 09:26:33;;;;;;;1.38;0.85;;;;;;;;;;5014292;28;20878;-61
2023/06/28 09:29:00;;;;;;;1.15;1.02;;;;;;;;;;5014997;28;20180;-61
2023/06/28 09:31:30;;;;;;;1.05;0.90;;;;;;;;;;5014810;28;20263;-61
2023/06/28 09:33:56;;;;;;;1.98;0.98;;;;;;;;;;5014749;28;20204;-61
2023/06/28 09:36:23;;;;;;;1.55;1.00;;;;;;;;;;5013622;28;20227;-61
2023/06/28 09:38:49;;;;;;;1.60;0.90;;;;;;;;;;5020497;28;20184;-61
2023/06/28 09:41:15;;;;;;;1.63;0.90;;;;;;;;;;5014261;28;20191;-61
2023/06/28 09:43:41;;;;;;;3.60;0.90;;;;;;;;;;5014461;28;20180;-61
2023/06/28 09:46:15;;;;;;;1.50;0.90;;;;;;;;;;5013991;28;20258;-61
2023/06/28 09:48:45;;;;;;;0.98;0.80;;;;;;;;;;5015488;28;20183;-61
2023/06/28 09:51:12;;;;;;;2.92;1.15;;;;;;;;;;5014678;28;20242;-61
2023/06/28 09:53:49;;;;;;;1.40;0.90;;;;;;;;;;5013826;28;20188;-61
2023/06/28 09:56:15;;;;;;;1.75;0.70;;;;;;;;;;5013796;28;20173;-61
2023/06/28 09:58:41;;;;;;;1.23;0.80;;;;;;;;;;5014651;28;20688;-61
2023/06/28 10:01:07;;;;;;;0.80;0.80;;;;;;;;;;5014565;28;20559;-61
2023/06/28 10:03:33;;;;;;;2.97;0.90;;;;;;;;;;5013919;28;20510;-61
2023/06/28 10:06:00;;;;;;;1.77;0.93;;;;;;;;;;5014115;28;20199;-61
2023/06/28 10:08:26;;;;;;;1.73;1.05;;;;;;;;;;5015080;28;20322;-61
2023/06/28 10:10:57;;;;;;;2.45;0.80;;;;;;;;;;5018031;28;20408;-61
2023/06/28 10:13:26;;;;;;;2.58;1.13;;;;;;;;;;5017444;28;20196;-61
2023/06/28 10:16:09;;;;;;;1.45;1.20;;;;;;;;;;5017242;28;20397;-61
2023/06/28 10:18:36;;;;;;;1.10;0.88;;;;;;;;;;5018534;28;20207;-63
2023/06/28 10:21:06;;;;;;;2.45;0.90;;;;;;;;;;5018147;28;20236;-62
2023/06/28 10:23:35;;;;;;;2.70;1.00;;;;;;;;;;5016824;28;20191;-61
2023/06/28 10:26:02;;;;;;;3.08;1.40;;;;;;;;;;5016700;28;20188;-61
2023/06/28 10:28:30;;;;;;;3.95;1.15;;;;;;;;;;5017855;28;20184;-61
2023/06/28 10:30:56;;;;;;;2.85;0.80;;;;;;;;;;5018095;28;20219;-61
2023/06/28 10:33:23;;;;;;;1.67;0.80;;;;;;;;;;5017734;28;20498;-61
2023/06/28 10:35:50;;;;;;;3.38;1.10;;;;;;;;;;5017183;28;20222;-61
2023/06/28 10:38:16;;;;;;;0.75;0.70;;;;;;;;;;5018258;28;20588;-61
2023/06/28 10:40:45;;;;;;;2.22;1.10;;;;;;;;;;5017327;28;20191;-60
2023/06/28 10:43:24;;;;;;;2.75;1.33;;;;;;;;;;5018010;28;20180;-60
2023/06/28 10:45:51;;;;;;;2.38;1.00;;;;;;;;;;5016913;28;20187;-61
2023/06/28 10:48:18;;;;;;;0.98;0.80;;;;;;;;;;5014051;28;20653;-61
2023/06/28 10:50:44;;;;;;;1.55;0.68;;;;;;;;;;5017773;28;20263;-61
2023/06/28 10:53:20;;;;;;;1.58;1.00;;;;;;;;;;5017265;28;20303;-61
2023/06/28 10:56:04;;;;;;;6.10;0.80;;;;;;;;;;5016149;28;20184;-61
2023/06/28 10:58:37;;;;;;;2.05;0.88;;;;;;;;;;5018976;28;20249;-61
2023/06/28 11:01:03;;;;;;;2.42;0.88;;;;;;;;;;5017712;28;20172;-61
2023/06/28 11:03:39;;;;;;;2.75;1.00;;;;;;;;;;5017170;28;20204;-61
2023/06/28 11:06:05;;;;;;;2.80;1.17;;;;;;;;;;4999470;28;20189;-61
2023/06/28 11:08:38;;;;;;;1.95;0.80;;;;;;;;;;5018169;28;20188;-60
2023/06/28 11:11:04;;;;;;;1.10;0.77;;;;;;;;;;5017315;28;20195;-60
2023/06/28 11:13:44;;;;;;;0.82;0.80;;;;;;;;;;5017374;28;20176;-61
2023/06/28 11:16:11;;;;;;;1.50;1.00;;;;;;;;;;5016715;28;20416;-60
2023/06/28 11:18:37;;;;;;;2.08;0.90;;;;;;;;;;5017691;28;20199;-60
2023/06/28 11:21:03;;;;;;;0.98;0.90;;;;;;;;;;5016775;28;20598;-60
2023/06/28 11:23:35;;;;;;;5.20;0.80;;;;;;;;;;5016354;28;20180;-61
2023/06/28 11:26:02;;;;;;;1.23;0.80;;;;;;;;;;5014957;28;20169;-61
2023/06/28 11:28:29;;;;;;;1.15;0.60;;;;;;;;;;5018538;28;20283;-61
2023/06/28 11:30:55;;;;;;;1.92;0.70;;;;;;;;;;5017045;28;20188;-60
2023/06/28 11:33:22;;;;;;;1.83;0.85;;;;;;;;;;5017081;28;20488;-60
2023/06/28 11:35:48;;;;;;;1.08;0.90;;;;;;;;;;5015719;28;20191;-60
2023/06/28 11:38:14;;;;;;;1.23;0.77;;;;;;;;;;5017927;28;20204;-60
2023/06/28 11:40:40;;;;;;;2.20;1.10;;;;;;;;;;5016619;28;20184;-60
2023/06/28 11:43:06;;;;;;;1.45;0.82;;;;;;;;;;5016873;28;20184;-60
2023/06/28 11:45:32;;;;;;;1.98;0.80;;;;;;;;;;5016286;28;20239;-60
2023/06/28 11:47:59;;;;;;;1.05;0.90;;;;;;;;;;5016121;28;20177;-61
2023/06/28 11:50:25;;;;;;;1.42;0.82;;;;;;;;;;5020425;28;20216;-61
2023/06/28 11:52:52;;;;;;;1.33;0.90;;;;;;;;;;5016384;28;20263;-60
2023/06/28 11:55:18;;;;;;;1.35;0.80;;;;;;;;;;5016274;28;20283;-60
2023/06/28 11:57:44;;;;;;;3.38;1.10;;;;;;;;;;5015640;28;20298;-60
2023/06/28 12:00:11;;;;;;;2.00;0.80;;;;;;;;;;5020934;28;20226;-60
2023/06/28 12:02:47;;;;;;;2.60;0.85;;;;;;;;;;5018488;28;20184;-60
2023/06/28 12:05:13;;;;;;;1.13;1.02;;;;;;;;;;5016288;28;20179;-61
2023/06/28 12:07:39;;;;;;;2.90;0.90;;;;;;;;;;5016037;28;20476;-61
2023/06/28 12:10:05;;;;;;;3.33;0.85;;;;;;;;;;5016527;28;20238;-60
2023/06/28 12:12:35;;;;;;;0.80;0.70;;;;;;;;;;5014016;28;20192;-61
2023/06/28 12:15:02;;;;;;;1.45;0.80;;;;;;;;;;5015759;28;20177;-62
2023/06/28 12:17:36;;;;;;;2.60;0.80;;;;;;;;;;5015097;28;20218;-61
2023/06/28 12:20:03;;;;;;;1.83;0.82;;;;;;;;;;5014746;28;20188;-60
2023/06/28 12:22:37;;;;;;;1.60;0.88;;;;;;;;;;5014731;28;20226;-61
2023/06/28 12:25:03;;;;;;;0.93;0.82;;;;;;;;;;5015797;28;20180;-61
2023/06/28 12:27:29;;;;;;;2.20;0.82;;;;;;;;;;5015271;28;20231;-62
2023/06/28 12:29:55;;;;;;;1.15;0.95;;;;;;;;;;5017333;28;20218;-61
2023/06/28 12:32:24;;;;;;;1.85;1.00;;;;;;;;;;5020148;28;20176;-60
2023/06/28 12:34:51;;;;;;;1.65;0.73;;;;;;;;;;5018967;28;20184;-60
2023/06/28 12:37:17;;;;;;;1.45;0.73;;;;;;;;;;5014640;28;20211;-61
2023/06/28 12:39:43;;;;;;;3.88;1.20;;;;;;;;;;5015657;28;20426;-60
2023/06/28 12:42:22;;;;;;;0.60;0.60;;;;;;;;;;5018995;28;20168;-60
2023/06/28 12:44:55;;;;;;;2.35;0.82;;;;;;;;;;4999346;28;20191;-58
2023/06/28 12:47:31;;;;;;;1.00;0.90;;;;;;;;;;5009569;28;20200;-59
2023/06/28 12:50:00;;;;;;;3.85;0.95;;;;;;;;;;5016986;28;20608;-59
2023/06/28 12:52:27;;;;;;;7.05;0.88;;;;;;;;;;5015441;28;20593;-59
2023/06/28 12:54:53;;;;;;;2.85;0.70;;;;;;;;;;5015358;28;20199;-59
2023/06/28 12:57:21;;;;;;;3.08;0.93;;;;;;;;;;5013391;28;20315;-59
2023/06/28 12:59:48;;;;;;;2.40;1.30;;;;;;;;;;5015245;28;20180;-59
2023/06/28 13:02:14;;;;;;;1.45;0.60;;;;;;;;;;5021662;28;20180;-60
2023/06/28 13:04:40;;;;;;;1.15;0.70;;;;;;;;;;5015570;28;20176;-60
2023/06/28 13:07:10;;;;;;;0.85;0.70;;;;;;;;;;5014286;28;20453;-59
2023/06/28 13:09:36;;;;;;;1.75;1.00;;;;;;;;;;5014939;28;20296;-59
2023/06/28 13:12:02;;;;;;;2.13;0.70;;;;;;;;;;5018216;28;20267;-58
2023/06/28 13:14:28;;;;;;;1.70;0.65;;;;;;;;;;5015347;28;20188;-58
2023/06/28 13:16:54;;;;;;;3.85;1.05;;;;;;;;;;5014349;28;20277;-59
2023/06/28 13:19:20;;;;;;;2.53;0.85;;;;;;;;;;5015004;28;20230;-60
2023/06/28 13:21:51;;;;;;;1.27;0.80;;;;;;;;;;5020300;28;20196;-60
2023/06/28 13:24:17;;;;;;;1.33;0.85;;;;;;;;;;5014748;28;20173;-60
2023/06/28 13:26:43;;;;;;;2.08;1.02;;;;;;;;;;5014213;28;20295;-60
2023/06/28 13:29:09;;;;;;;2.78;0.70;;;;;;;;;;5015148;28;20230;-59
2023/06/28 13:31:35;;;;;;;1.77;1.00;;;;;;;;;;5020101;28;20188;-59
2023/06/28 13:34:01;;;;;;;2.13;0.93;;;;;;;;;;5014678;28;20178;-59
2023/06/28 13:36:27;;;;;;;1.30;1.00;;;;;;;;;;5013841;28;20231;-60
2023/06/28 13:38:53;;;;;;;2.05;0.90;;;;;;;;;;5014116;28;20214;-59
2023/06/28 13:41:20;;;;;;;1.02;0.77;;;;;;;;;;5014599;28;20226;-60
2023/06/28 13:43:46;;;;;;;1.35;0.90;;;;;;;;;;5013835;28;20230;-59
2023/06/28 13:46:12;;;;;;;1.02;0.70;;;;;;;;;;5014063;28;20215;-59
2023/06/28 13:48:38;;;;;;;1.65;0.80;;;;;;;;;;5014544;28;20192;-60
2023/06/28 13:51:03;;;;;;;1.98;0.98;;;;;;;;;;5018301;28;20219;-60
2023/06/28 13:53:29;;;;;;;1.77;1.00;;;;;;;;;;5013463;28;20461;-59
2023/06/28 13:55:58;;;;;;;2.22;0.88;;;;;;;;;;5013229;28;20199;-59
2023/06/28 13:58:24;;;;;;;1.00;0.80;;;;;;;;;;5014209;28;20204;-60
2023/06/28 14:00:53;;;;;;;1.35;0.85;;;;;;;;;;5014208;28;20223;-59
2023/06/28 14:03:19;;;;;;;2.70;1.20;;;;;;;;;;5014559;28;20180;-59
2023/06/28 14:05:45;;;;;;;1.90;0.85;;;;;;;;;;5013497;28;20191;-59
2023/06/28 14:08:11;;;;;;;2.03;0.90;;;;;;;;;;5013499;28;20215;-60
2023/06/28 14:10:37;;;;;;;3.80;0.70;;;;;;;;;;5014429;28;20250;-60
2023/06/28 14:13:04;;;;;;;1.38;0.75;;;;;;;;;;5014359;28;20234;-59
2023/06/28 14:15:30;;;;;;;2.35;0.80;;;;;;;;;;4997180;28;20184;-59
2023/06/28 14:17:56;;;;;;;2.25;0.80;;;;;;;;;;5013270;28;20621;-59
2023/06/28 14:20:22;;;;;;;2.22;0.80;;;;;;;;;;5015803;28;20180;-59
2023/06/28 14:22:50;;;;;;;2.28;0.88;;;;;;;;;;5016429;28;20223;-59
2023/06/28 14:25:17;;;;;;;2.65;0.90;;;;;;;;;;5013621;28;20172;-59
2023/06/28 14:27:43;;;;;;;1.80;1.08;;;;;;;;;;5013623;28;20192;-59
2023/06/28 14:30:09;;;;;;;1.40;0.88;;;;;;;;;;4996752;28;20238;-58
2023/06/28 14:32:35;;;;;;;1.65;0.93;;;;;;;;;;5015858;28;20259;-57
2023/06/28 14:35:01;;;;;;;2.42;0.80;;;;;;;;;;5013669;28;20188;-58
2023/06/28 14:37:27;;;;;;;1.60;1.20;;;;;;;;;;5012050;28;20548;-58
2023/06/28 14:39:53;;;;;;;4.18;1.05;;;;;;;;;;5012786;28;20173;-58